AAL450 KPHX-KSAT
Flight info
| Callsign | AAL450 |
|---|---|
| Flight time | 1h 42m |
| Altitude | 37000 |
| Route | ECLPS1 PHASE ELP FST MOPPP DNKIN1 |
| Aircraft | A20N/M-SDE2E3FGHIRWXY/LB1 |
Departure
| Time | 2026-05-08 15:03 |
|---|---|
| Airport | Phoenix Sky Harbor International Airport (KPHX) |
Arrival
| Time | 2026-05-08 16:45 |
|---|---|
| Airport | San Antonio International Airport (KSAT) |
| Time | Latitude | Longitude | Altitude | Speed | Heading |
|---|---|---|---|---|---|
| 2026-05-08 14:19 | 33.43752 | -111.99980 | 1138 ft | 0 kts | 90° |
| 2026-05-08 14:47 | 33.43752 | -111.99986 | 1138 ft | 4 kts | 88° |
| 2026-05-08 14:47 | 33.43748 | -112.00013 | 1137 ft | 4 kts | 58° |
| 2026-05-08 14:48 | 33.43732 | -112.00031 | 1138 ft | 4 kts | 10° |
| 2026-05-08 14:48 | 33.43725 | -112.00032 | 1137 ft | 1 kts | 0° |
| 2026-05-08 14:53 | 33.43735 | -112.00032 | 1138 ft | 5 kts | 0° |
| 2026-05-08 14:53 | 33.43773 | -112.00032 | 1137 ft | 5 kts | 360° |
| 2026-05-08 14:53 | 33.43807 | -112.00032 | 1137 ft | 4 kts | 0° |
| 2026-05-08 14:53 | 33.43833 | -112.00032 | 1138 ft | 0 kts | 0° |
| 2026-05-08 14:54 | 33.43834 | -112.00032 | 1138 ft | 1 kts | 0° |
| 2026-05-08 14:54 | 33.43877 | -112.00033 | 1137 ft | 7 kts | 351° |
| 2026-05-08 14:54 | 33.43903 | -112.00069 | 1136 ft | 6 kts | 282° |
| 2026-05-08 14:55 | 33.43905 | -112.00173 | 1134 ft | 16 kts | 269° |
| 2026-05-08 14:55 | 33.43904 | -112.00302 | 1134 ft | 15 kts | 270° |
| 2026-05-08 14:55 | 33.43870 | -112.00382 | 1138 ft | 11 kts | 189° |
| 2026-05-08 14:55 | 33.43774 | -112.00382 | 1136 ft | 20 kts | 180° |
| 2026-05-08 14:56 | 33.43635 | -112.00382 | 1136 ft | 20 kts | 180° |
| 2026-05-08 14:56 | 33.43500 | -112.00382 | 1136 ft | 19 kts | 181° |
| 2026-05-08 14:56 | 33.43387 | -112.00383 | 1136 ft | 14 kts | 180° |
| 2026-05-08 14:56 | 33.43291 | -112.00382 | 1136 ft | 13 kts | 179° |
| 2026-05-08 14:57 | 33.43219 | -112.00411 | 1138 ft | 10 kts | 245° |
| 2026-05-08 14:57 | 33.43215 | -112.00507 | 1135 ft | 18 kts | 270° |
| 2026-05-08 14:57 | 33.43214 | -112.00678 | 1135 ft | 21 kts | 270° |
| 2026-05-08 14:57 | 33.43215 | -112.00853 | 1134 ft | 21 kts | 270° |
| 2026-05-08 14:58 | 33.43215 | -112.01027 | 1133 ft | 21 kts | 270° |
| 2026-05-08 14:58 | 33.43215 | -112.01196 | 1133 ft | 20 kts | 270° |
| 2026-05-08 14:58 | 33.43215 | -112.01364 | 1134 ft | 20 kts | 270° |
| 2026-05-08 14:58 | 33.43215 | -112.01529 | 1133 ft | 19 kts | 270° |
| 2026-05-08 14:59 | 33.43215 | -112.01692 | 1136 ft | 21 kts | 270° |
| 2026-05-08 14:59 | 33.43216 | -112.02036 | 1136 ft | 20 kts | 270° |
| 2026-05-08 14:59 | 33.43216 | -112.02197 | 1137 ft | 19 kts | 270° |
| 2026-05-08 15:00 | 33.43216 | -112.02353 | 1136 ft | 19 kts | 270° |
| 2026-05-08 15:00 | 33.43216 | -112.02509 | 1136 ft | 18 kts | 270° |
| 2026-05-08 15:00 | 33.43216 | -112.02652 | 1132 ft | 11 kts | 270° |
| 2026-05-08 15:00 | 33.43205 | -112.02693 | 1132 ft | 0 kts | 222° |
| 2026-05-08 15:01 | 33.43165 | -112.02704 | 1132 ft | 9 kts | 180° |
| 2026-05-08 15:01 | 33.43107 | -112.02680 | 1124 ft | 9 kts | 115° |
| 2026-05-08 15:01 | 33.43105 | -112.02652 | 1130 ft | 0 kts | 90° |
| 2026-05-08 15:02 | 33.43105 | -112.02455 | 1129 ft | 56 kts | 90° |
| 2026-05-08 15:02 | 33.43105 | -112.01747 | 1131 ft | 113 kts | 90° |
| 2026-05-08 15:02 | 33.43102 | -112.00605 | 1138 ft | 159 kts | 90° |
| 2026-05-08 15:02 | 33.43098 | -111.99220 | 1431 ft | 169 kts | 89° |
| 2026-05-08 15:03 | 33.43172 | -111.97809 | 2019 ft | 171 kts | 86° |
| 2026-05-08 15:03 | 33.43263 | -111.96408 | 2779 ft | 171 kts | 87° |
| 2026-05-08 15:03 | 33.43346 | -111.94886 | 3151 ft | 197 kts | 87° |
| 2026-05-08 15:03 | 33.43427 | -111.93098 | 3324 ft | 233 kts | 88° |
| 2026-05-08 15:04 | 33.43508 | -111.91029 | 3632 ft | 261 kts | 86° |
| 2026-05-08 15:04 | 33.43538 | -111.88797 | 4175 ft | 274 kts | 94° |
| 2026-05-08 15:04 | 33.43027 | -111.86584 | 4897 ft | 282 kts | 119° |
| 2026-05-08 15:04 | 33.41799 | -111.84724 | 5589 ft | 288 kts | 134° |
| 2026-05-08 15:05 | 33.40348 | -111.83033 | 6298 ft | 294 kts | 137° |
| 2026-05-08 15:05 | 33.38842 | -111.81342 | 7026 ft | 298 kts | 136° |
| 2026-05-08 15:05 | 33.37331 | -111.79638 | 7859 ft | 298 kts | 136° |
| 2026-05-08 15:05 | 33.35830 | -111.77933 | 8747 ft | 298 kts | 136° |
| 2026-05-08 15:06 | 33.34322 | -111.76213 | 9553 ft | 301 kts | 135° |
| 2026-05-08 15:06 | 33.32799 | -111.74469 | 10288 ft | 307 kts | 135° |
| 2026-05-08 15:06 | 33.31214 | -111.72651 | 10627 ft | 326 kts | 135° |
| 2026-05-08 15:06 | 33.29525 | -111.70711 | 10901 ft | 347 kts | 135° |
| 2026-05-08 15:07 | 33.27738 | -111.68662 | 11217 ft | 363 kts | 135° |
| 2026-05-08 15:07 | 33.25894 | -111.66550 | 11775 ft | 369 kts | 135° |
| 2026-05-08 15:07 | 33.24030 | -111.64417 | 12466 ft | 372 kts | 135° |
| 2026-05-08 15:07 | 33.22153 | -111.62270 | 13235 ft | 375 kts | 135° |
| 2026-05-08 15:08 | 33.20287 | -111.60136 | 14011 ft | 377 kts | 134° |
| 2026-05-08 15:08 | 33.19001 | -111.58666 | 14472 ft | 380 kts | 134° |
| 2026-05-08 15:08 | 33.16424 | -111.55720 | 15232 ft | 387 kts | 134° |
| 2026-05-08 15:08 | 33.14463 | -111.53481 | 15895 ft | 392 kts | 134° |
| 2026-05-08 15:09 | 33.12503 | -111.51244 | 16540 ft | 397 kts | 134° |
| 2026-05-08 15:09 | 33.10495 | -111.48954 | 17171 ft | 402 kts | 134° |
| 2026-05-08 15:09 | 33.08457 | -111.46632 | 17818 ft | 407 kts | 134° |
| 2026-05-08 15:09 | 33.06568 | -111.44115 | 18401 ft | 409 kts | 124° |
| 2026-05-08 15:10 | 33.04951 | -111.41312 | 18947 ft | 412 kts | 121° |
| 2026-05-08 15:10 | 33.03384 | -111.38434 | 19523 ft | 416 kts | 120° |
| 2026-05-08 15:10 | 33.01804 | -111.35520 | 20075 ft | 419 kts | 120° |
| 2026-05-08 15:10 | 33.00211 | -111.32592 | 20638 ft | 423 kts | 120° |
| 2026-05-08 15:11 | 32.98598 | -111.29637 | 21181 ft | 427 kts | 120° |
| 2026-05-08 15:11 | 32.96969 | -111.26663 | 21732 ft | 431 kts | 120° |
| 2026-05-08 15:11 | 32.95339 | -111.23693 | 22259 ft | 434 kts | 120° |
| 2026-05-08 15:11 | 32.93678 | -111.20671 | 22768 ft | 438 kts | 120° |
| 2026-05-08 15:12 | 32.91998 | -111.17617 | 23270 ft | 442 kts | 120° |
| 2026-05-08 15:12 | 32.90305 | -111.14543 | 23723 ft | 445 kts | 120° |
| 2026-05-08 15:12 | 32.88601 | -111.11453 | 24158 ft | 448 kts | 120° |
| 2026-05-08 15:12 | 32.86882 | -111.08337 | 24575 ft | 451 kts | 120° |
| 2026-05-08 15:13 | 32.85157 | -111.05213 | 25007 ft | 453 kts | 120° |
| 2026-05-08 15:13 | 32.83422 | -111.02074 | 25441 ft | 455 kts | 120° |
| 2026-05-08 15:13 | 32.81676 | -110.98918 | 25851 ft | 458 kts | 120° |
| 2026-05-08 15:13 | 32.79921 | -110.95748 | 26282 ft | 460 kts | 120° |
| 2026-05-08 15:14 | 32.78157 | -110.92564 | 26695 ft | 462 kts | 120° |
| 2026-05-08 15:14 | 32.76382 | -110.89365 | 27101 ft | 465 kts | 120° |
| 2026-05-08 15:14 | 32.74595 | -110.86145 | 27485 ft | 467 kts | 120° |
| 2026-05-08 15:14 | 32.72825 | -110.82959 | 27873 ft | 469 kts | 120° |
| 2026-05-08 15:15 | 32.71020 | -110.79714 | 28270 ft | 471 kts | 119° |
| 2026-05-08 15:15 | 32.69207 | -110.76456 | 28650 ft | 473 kts | 119° |
| 2026-05-08 15:15 | 32.67382 | -110.73179 | 28979 ft | 476 kts | 119° |
| 2026-05-08 15:15 | 32.65619 | -110.69865 | 29461 ft | 473 kts | 115° |
| 2026-05-08 15:16 | 32.64233 | -110.66358 | 29996 ft | 466 kts | 105° |
| 2026-05-08 15:16 | 32.63280 | -110.62706 | 30452 ft | 461 kts | 101° |
| 2026-05-08 15:16 | 32.62460 | -110.59034 | 30874 ft | 459 kts | 100° |
| 2026-05-08 15:16 | 32.61661 | -110.55362 | 31283 ft | 459 kts | 100° |
| 2026-05-08 15:17 | 32.60874 | -110.51753 | 31663 ft | 458 kts | 100° |
| 2026-05-08 15:17 | 32.60072 | -110.48100 | 32046 ft | 457 kts | 100° |
| 2026-05-08 15:17 | 32.59267 | -110.44452 | 32452 ft | 457 kts | 99° |
| 2026-05-08 15:17 | 32.58460 | -110.40809 | 32832 ft | 456 kts | 99° |
| 2026-05-08 15:18 | 32.57655 | -110.37183 | 33259 ft | 454 kts | 99° |
| 2026-05-08 15:18 | 32.56850 | -110.33560 | 33611 ft | 454 kts | 99° |
| 2026-05-08 15:18 | 32.56042 | -110.29935 | 33973 ft | 453 kts | 99° |
| 2026-05-08 15:18 | 32.55237 | -110.26326 | 34285 ft | 453 kts | 99° |
| 2026-05-08 15:19 | 32.54428 | -110.22707 | 34526 ft | 454 kts | 99° |
| 2026-05-08 15:19 | 32.53619 | -110.19092 | 34773 ft | 454 kts | 99° |
| 2026-05-08 15:19 | 32.52809 | -110.15477 | 35036 ft | 454 kts | 99° |
| 2026-05-08 15:19 | 32.52009 | -110.11914 | 35295 ft | 454 kts | 99° |
| 2026-05-08 15:20 | 32.51196 | -110.08302 | 35550 ft | 454 kts | 100° |
| 2026-05-08 15:20 | 32.50382 | -110.04686 | 35761 ft | 454 kts | 100° |
| 2026-05-08 15:20 | 32.49568 | -110.01076 | 35977 ft | 454 kts | 100° |
| 2026-05-08 15:20 | 32.48753 | -109.97464 | 36192 ft | 454 kts | 100° |
| 2026-05-08 15:21 | 32.47934 | -109.93843 | 36402 ft | 455 kts | 100° |
| 2026-05-08 15:21 | 32.47115 | -109.90226 | 36589 ft | 455 kts | 100° |
| 2026-05-08 15:21 | 32.46293 | -109.86605 | 36809 ft | 455 kts | 101° |
| 2026-05-08 15:21 | 32.45468 | -109.82973 | 36929 ft | 457 kts | 101° |
| 2026-05-08 15:22 | 32.43869 | -109.75704 | 36929 ft | 453 kts | 97° |
| 2026-05-08 15:22 | 32.42857 | -109.68376 | 36925 ft | 450 kts | 94° |
| 2026-05-08 15:23 | 32.41944 | -109.61080 | 36929 ft | 450 kts | 94° |
| 2026-05-08 15:23 | 32.41017 | -109.53745 | 36925 ft | 450 kts | 94° |
| 2026-05-08 15:24 | 32.40083 | -109.46412 | 36918 ft | 451 kts | 94° |
| 2026-05-08 15:24 | 32.39143 | -109.39072 | 36923 ft | 451 kts | 94° |
| 2026-05-08 15:25 | 32.38199 | -109.31740 | 36917 ft | 450 kts | 94° |
| 2026-05-08 15:25 | 32.37258 | -109.24459 | 36920 ft | 450 kts | 94° |
| 2026-05-08 15:26 | 32.36305 | -109.17132 | 36917 ft | 451 kts | 94° |
| 2026-05-08 15:26 | 32.35155 | -109.09829 | 36931 ft | 453 kts | 97° |
| 2026-05-08 15:27 | 32.33824 | -109.02526 | 36921 ft | 453 kts | 98° |
| 2026-05-08 15:27 | 32.32484 | -108.95240 | 36920 ft | 453 kts | 98° |
| 2026-05-08 15:28 | 32.31161 | -108.87945 | 36921 ft | 454 kts | 98° |
| 2026-05-08 15:28 | 32.29855 | -108.80697 | 36924 ft | 454 kts | 98° |
| 2026-05-08 15:29 | 32.28540 | -108.73402 | 37111 ft | 453 kts | 98° |
| 2026-05-08 15:29 | 32.27219 | -108.66104 | 37110 ft | 453 kts | 99° |
| 2026-05-08 15:30 | 32.26118 | -108.60049 | 37097 ft | 454 kts | 99° |
| 2026-05-08 15:30 | 32.24787 | -108.52752 | 37057 ft | 454 kts | 99° |
| 2026-05-08 15:31 | 32.23452 | -108.45454 | 37014 ft | 454 kts | 99° |
| 2026-05-08 15:31 | 32.22114 | -108.38164 | 36967 ft | 455 kts | 100° |
| 2026-05-08 15:32 | 32.20775 | -108.30898 | 36917 ft | 456 kts | 100° |
| 2026-05-08 15:32 | 32.19424 | -108.23588 | 36908 ft | 456 kts | 100° |
| 2026-05-08 15:33 | 32.18066 | -108.16268 | 36910 ft | 456 kts | 100° |
| 2026-05-08 15:33 | 32.16707 | -108.08967 | 36905 ft | 456 kts | 101° |
| 2026-05-08 15:34 | 32.15341 | -108.01656 | 36900 ft | 456 kts | 100° |
| 2026-05-08 15:34 | 32.13972 | -107.94345 | 36901 ft | 456 kts | 100° |
| 2026-05-08 15:35 | 32.12599 | -107.87044 | 36898 ft | 456 kts | 100° |
| 2026-05-08 15:35 | 32.11223 | -107.79748 | 37045 ft | 456 kts | 100° |
| 2026-05-08 15:36 | 32.09849 | -107.72489 | 37049 ft | 456 kts | 101° |
| 2026-05-08 15:36 | 32.08460 | -107.65175 | 37027 ft | 457 kts | 101° |
| 2026-05-08 15:37 | 32.07063 | -107.57844 | 36997 ft | 458 kts | 101° |
| 2026-05-08 15:37 | 32.05662 | -107.50514 | 36962 ft | 458 kts | 101° |
| 2026-05-08 15:38 | 32.04267 | -107.43243 | 36914 ft | 457 kts | 101° |
| 2026-05-08 15:38 | 32.02858 | -107.35918 | 36887 ft | 458 kts | 102° |
| 2026-05-08 15:39 | 32.01438 | -107.28560 | 36883 ft | 459 kts | 102° |
| 2026-05-08 15:39 | 32.00016 | -107.21227 | 36885 ft | 459 kts | 102° |
| 2026-05-08 15:40 | 31.98598 | -107.13934 | 36884 ft | 459 kts | 102° |
| 2026-05-08 15:40 | 31.97165 | -107.06584 | 36897 ft | 461 kts | 103° |
| 2026-05-08 15:41 | 31.95723 | -106.99207 | 36890 ft | 464 kts | 103° |
| 2026-05-08 15:41 | 31.94268 | -106.91794 | 36882 ft | 465 kts | 103° |
| 2026-05-08 15:42 | 31.92805 | -106.84364 | 37046 ft | 465 kts | 103° |
| 2026-05-08 15:42 | 31.91340 | -106.76949 | 37072 ft | 465 kts | 103° |
| 2026-05-08 15:43 | 31.89880 | -106.69582 | 37068 ft | 465 kts | 104° |
| 2026-05-08 15:43 | 31.88403 | -106.62153 | 37072 ft | 467 kts | 104° |
| 2026-05-08 15:44 | 31.86918 | -106.54709 | 37039 ft | 467 kts | 104° |
| 2026-05-08 15:44 | 31.85428 | -106.47264 | 37042 ft | 467 kts | 104° |
| 2026-05-08 15:45 | 31.83937 | -106.39839 | 37044 ft | 467 kts | 104° |
| 2026-05-08 15:45 | 31.82441 | -106.32405 | 37033 ft | 467 kts | 105° |
| 2026-05-08 15:46 | 31.80851 | -106.24938 | 37026 ft | 474 kts | 109° |
| 2026-05-08 15:46 | 31.79011 | -106.17466 | 36983 ft | 476 kts | 110° |
| 2026-05-08 15:47 | 31.77137 | -106.10063 | 36940 ft | 476 kts | 110° |
| 2026-05-08 15:47 | 31.75264 | -106.02600 | 36905 ft | 475 kts | 109° |
| 2026-05-08 15:48 | 31.72471 | -105.91400 | 36871 ft | 477 kts | 110° |
| 2026-05-08 15:49 | 31.70602 | -105.83913 | 36873 ft | 477 kts | 110° |
| 2026-05-08 15:49 | 31.68730 | -105.76430 | 36879 ft | 477 kts | 110° |
| 2026-05-08 15:50 | 31.66852 | -105.68949 | 36880 ft | 477 kts | 110° |
| 2026-05-08 15:50 | 31.64981 | -105.61520 | 36882 ft | 478 kts | 111° |
| 2026-05-08 15:51 | 31.63084 | -105.54010 | 36886 ft | 482 kts | 112° |
| 2026-05-08 15:51 | 31.61170 | -105.46456 | 36896 ft | 483 kts | 112° |
| 2026-05-08 15:52 | 31.59249 | -105.38889 | 36892 ft | 483 kts | 112° |
| 2026-05-08 15:52 | 31.57327 | -105.31337 | 36900 ft | 483 kts | 112° |
| 2026-05-08 15:53 | 31.55398 | -105.23781 | 36906 ft | 485 kts | 112° |
| 2026-05-08 15:53 | 31.53466 | -105.16238 | 36902 ft | 487 kts | 112° |
| 2026-05-08 15:54 | 31.51516 | -105.08640 | 36906 ft | 487 kts | 112° |
| 2026-05-08 15:54 | 31.49562 | -105.01044 | 36906 ft | 487 kts | 112° |
| 2026-05-08 15:55 | 31.47601 | -104.93447 | 36907 ft | 487 kts | 112° |
| 2026-05-08 15:55 | 31.44635 | -104.82019 | 36915 ft | 491 kts | 112° |
| 2026-05-08 15:56 | 31.42641 | -104.74342 | 36913 ft | 492 kts | 112° |
| 2026-05-08 15:56 | 31.40648 | -104.66675 | 36911 ft | 492 kts | 112° |
| 2026-05-08 15:57 | 31.38661 | -104.59061 | 36911 ft | 492 kts | 113° |
| 2026-05-08 15:57 | 31.36651 | -104.51389 | 36911 ft | 492 kts | 113° |
| 2026-05-08 15:58 | 31.34641 | -104.43734 | 36916 ft | 492 kts | 113° |
| 2026-05-08 15:58 | 31.32625 | -104.36082 | 36917 ft | 492 kts | 113° |
| 2026-05-08 15:59 | 31.30606 | -104.28436 | 36925 ft | 492 kts | 113° |
| 2026-05-08 15:59 | 31.28581 | -104.20787 | 36910 ft | 492 kts | 113° |
| 2026-05-08 16:00 | 31.26544 | -104.13124 | 36933 ft | 497 kts | 113° |
| 2026-05-08 16:00 | 31.24497 | -104.05439 | 36932 ft | 499 kts | 112° |
| 2026-05-08 16:01 | 31.22433 | -103.97697 | 36930 ft | 499 kts | 112° |
| 2026-05-08 16:01 | 31.20361 | -103.89950 | 36925 ft | 499 kts | 113° |
| 2026-05-08 16:02 | 31.18286 | -103.82214 | 36934 ft | 499 kts | 112° |
| 2026-05-08 16:02 | 31.16217 | -103.74523 | 36945 ft | 498 kts | 113° |
| 2026-05-08 16:03 | 31.14134 | -103.66802 | 36954 ft | 498 kts | 113° |
| 2026-05-08 16:03 | 31.12047 | -103.59088 | 36953 ft | 498 kts | 113° |
| 2026-05-08 16:04 | 31.09955 | -103.51375 | 36945 ft | 498 kts | 113° |
| 2026-05-08 16:04 | 31.07859 | -103.43665 | 36917 ft | 499 kts | 114° |
| 2026-05-08 16:05 | 31.05754 | -103.35947 | 36910 ft | 500 kts | 114° |
| 2026-05-08 16:05 | 31.03642 | -103.28220 | 36898 ft | 499 kts | 114° |
| 2026-05-08 16:06 | 31.01528 | -103.20506 | 36893 ft | 500 kts | 114° |
| 2026-05-08 16:06 | 30.99408 | -103.12792 | 36879 ft | 500 kts | 114° |
| 2026-05-08 16:07 | 30.97283 | -103.05079 | 36896 ft | 500 kts | 114° |
| 2026-05-08 16:07 | 30.95172 | -102.97395 | 36896 ft | 501 kts | 113° |
| 2026-05-08 16:08 | 30.93212 | -102.89588 | 37008 ft | 502 kts | 112° |
| 2026-05-08 16:08 | 30.91274 | -102.81772 | 37006 ft | 502 kts | 112° |
| 2026-05-08 16:09 | 30.89656 | -102.75280 | 36981 ft | 502 kts | 112° |
| 2026-05-08 16:09 | 30.87378 | -102.66183 | 36958 ft | 505 kts | 113° |
| 2026-05-08 16:10 | 30.85400 | -102.58309 | 36936 ft | 507 kts | 113° |
| 2026-05-08 16:10 | 30.83417 | -102.50432 | 36912 ft | 507 kts | 113° |
| 2026-05-08 16:11 | 30.81430 | -102.42568 | 36920 ft | 507 kts | 113° |
| 2026-05-08 16:11 | 30.79435 | -102.34688 | 36922 ft | 508 kts | 114° |
| 2026-05-08 16:12 | 30.77426 | -102.26787 | 36932 ft | 509 kts | 114° |
| 2026-05-08 16:12 | 30.75427 | -102.18935 | 36934 ft | 509 kts | 114° |
| 2026-05-08 16:13 | 30.73410 | -102.11039 | 36937 ft | 509 kts | 114° |
| 2026-05-08 16:13 | 30.71387 | -102.03142 | 36937 ft | 509 kts | 114° |
| 2026-05-08 16:14 | 30.69354 | -101.95232 | 36948 ft | 511 kts | 114° |
| 2026-05-08 16:14 | 30.67322 | -101.87344 | 36956 ft | 513 kts | 114° |
| 2026-05-08 16:15 | 30.65267 | -101.79391 | 36952 ft | 515 kts | 114° |
| 2026-05-08 16:15 | 30.63204 | -101.71422 | 36960 ft | 515 kts | 114° |
| 2026-05-08 16:16 | 30.61134 | -101.63452 | 36958 ft | 515 kts | 114° |
| 2026-05-08 16:16 | 30.59411 | -101.56836 | 36959 ft | 515 kts | 115° |
| 2026-05-08 16:17 | 30.57334 | -101.48877 | 36963 ft | 515 kts | 115° |
| 2026-05-08 16:17 | 30.54913 | -101.39631 | 36962 ft | 515 kts | 115° |
| 2026-05-08 16:18 | 30.53164 | -101.32971 | 36959 ft | 515 kts | 115° |
| 2026-05-08 16:18 | 30.51072 | -101.25027 | 36960 ft | 516 kts | 115° |
| 2026-05-08 16:19 | 30.48984 | -101.17115 | 36988 ft | 516 kts | 115° |
| 2026-05-08 16:19 | 30.46876 | -101.09153 | 36983 ft | 517 kts | 115° |
| 2026-05-08 16:20 | 30.44762 | -101.01186 | 36966 ft | 517 kts | 115° |
| 2026-05-08 16:20 | 30.42642 | -100.93217 | 36984 ft | 517 kts | 115° |
| 2026-05-08 16:21 | 30.40516 | -100.85252 | 36991 ft | 517 kts | 115° |
| 2026-05-08 16:21 | 30.38401 | -100.77345 | 37004 ft | 517 kts | 115° |
| 2026-05-08 16:22 | 30.36267 | -100.69392 | 36698 ft | 517 kts | 115° |
| 2026-05-08 16:22 | 30.35200 | -100.65422 | 36452 ft | 517 kts | 115° |
| 2026-05-08 16:22 | 30.34126 | -100.61434 | 36199 ft | 517 kts | 115° |
| 2026-05-08 16:23 | 30.33056 | -100.57464 | 35951 ft | 518 kts | 115° |
| 2026-05-08 16:23 | 30.31979 | -100.53476 | 35677 ft | 518 kts | 115° |
| 2026-05-08 16:23 | 30.30901 | -100.49488 | 35430 ft | 519 kts | 115° |
| 2026-05-08 16:23 | 30.29823 | -100.45504 | 35159 ft | 519 kts | 115° |
| 2026-05-08 16:24 | 30.28756 | -100.41565 | 34611 ft | 519 kts | 115° |
| 2026-05-08 16:24 | 30.27678 | -100.37587 | 34112 ft | 517 kts | 115° |
| 2026-05-08 16:24 | 30.26603 | -100.33627 | 33524 ft | 515 kts | 115° |
| 2026-05-08 16:24 | 30.25529 | -100.29682 | 32911 ft | 514 kts | 115° |
| 2026-05-08 16:25 | 30.24452 | -100.25728 | 32152 ft | 515 kts | 115° |
| 2026-05-08 16:25 | 30.23352 | -100.21720 | 30883 ft | 529 kts | 115° |
| 2026-05-08 16:25 | 30.22228 | -100.17625 | 29760 ft | 539 kts | 115° |
| 2026-05-08 16:25 | 30.21103 | -100.13499 | 29171 ft | 533 kts | 114° |
| 2026-05-08 16:26 | 30.19994 | -100.09431 | 28424 ft | 530 kts | 114° |
| 2026-05-08 16:26 | 30.18896 | -100.05420 | 27588 ft | 529 kts | 114° |
| 2026-05-08 16:26 | 30.17776 | -100.01361 | 26722 ft | 529 kts | 115° |
| 2026-05-08 16:26 | 30.16563 | -99.97355 | 25888 ft | 527 kts | 116° |
| 2026-05-08 16:27 | 30.15308 | -99.93396 | 25178 ft | 523 kts | 117° |
| 2026-05-08 16:27 | 30.14053 | -99.89461 | 24509 ft | 519 kts | 116° |
| 2026-05-08 16:27 | 30.12812 | -99.85568 | 23875 ft | 514 kts | 116° |
| 2026-05-08 16:27 | 30.11582 | -99.81709 | 23194 ft | 509 kts | 116° |
| 2026-05-08 16:28 | 30.10363 | -99.77887 | 22552 ft | 502 kts | 116° |
| 2026-05-08 16:28 | 30.09165 | -99.74127 | 21840 ft | 496 kts | 115° |
| 2026-05-08 16:28 | 30.07976 | -99.70404 | 21176 ft | 490 kts | 115° |
| 2026-05-08 16:28 | 30.06816 | -99.66773 | 20493 ft | 484 kts | 114° |
| 2026-05-08 16:29 | 30.05658 | -99.63151 | 19783 ft | 478 kts | 114° |
| 2026-05-08 16:29 | 30.04514 | -99.59580 | 19084 ft | 471 kts | 113° |
| 2026-05-08 16:29 | 30.03387 | -99.56064 | 18455 ft | 463 kts | 113° |
| 2026-05-08 16:29 | 30.02274 | -99.52595 | 17779 ft | 456 kts | 112° |
| 2026-05-08 16:30 | 30.01186 | -99.49201 | 17200 ft | 446 kts | 113° |
| 2026-05-08 16:30 | 30.00122 | -99.45888 | 16696 ft | 434 kts | 113° |
| 2026-05-08 16:30 | 29.99086 | -99.42663 | 16235 ft | 423 kts | 113° |
| 2026-05-08 16:30 | 29.98069 | -99.39505 | 15759 ft | 417 kts | 113° |
| 2026-05-08 16:31 | 29.97063 | -99.36385 | 15319 ft | 413 kts | 113° |
| 2026-05-08 16:31 | 29.96079 | -99.33338 | 14889 ft | 409 kts | 113° |
| 2026-05-08 16:31 | 29.95108 | -99.30326 | 14596 ft | 391 kts | 113° |
| 2026-05-08 16:31 | 29.94176 | -99.27438 | 14085 ft | 380 kts | 113° |
| 2026-05-08 16:32 | 29.93260 | -99.24604 | 13684 ft | 370 kts | 114° |
| 2026-05-08 16:32 | 29.92377 | -99.21896 | 13347 ft | 352 kts | 115° |
| 2026-05-08 16:32 | 29.91475 | -99.19340 | 13008 ft | 337 kts | 116° |
| 2026-05-08 16:32 | 29.90582 | -99.16897 | 12632 ft | 325 kts | 116° |
| 2026-05-08 16:33 | 29.89715 | -99.14537 | 12262 ft | 315 kts | 116° |
| 2026-05-08 16:33 | 29.88864 | -99.12228 | 11902 ft | 312 kts | 117° |
| 2026-05-08 16:33 | 29.88016 | -99.09927 | 11547 ft | 311 kts | 116° |
| 2026-05-08 16:33 | 29.87171 | -99.07634 | 11193 ft | 310 kts | 116° |
| 2026-05-08 16:34 | 29.86330 | -99.05350 | 10849 ft | 310 kts | 116° |
| 2026-05-08 16:34 | 29.85490 | -99.03068 | 10501 ft | 309 kts | 116° |
| 2026-05-08 16:34 | 29.84662 | -99.00819 | 10154 ft | 307 kts | 116° |
| 2026-05-08 16:34 | 29.83824 | -98.98545 | 9649 ft | 309 kts | 116° |
| 2026-05-08 16:35 | 29.82951 | -98.96304 | 9256 ft | 305 kts | 118° |
| 2026-05-08 16:35 | 29.82050 | -98.94121 | 8895 ft | 299 kts | 118° |
| 2026-05-08 16:35 | 29.81155 | -98.91977 | 8551 ft | 295 kts | 118° |
| 2026-05-08 16:35 | 29.80270 | -98.89864 | 8223 ft | 290 kts | 119° |
| 2026-05-08 16:36 | 29.79399 | -98.87784 | 7896 ft | 287 kts | 119° |
| 2026-05-08 16:36 | 29.78543 | -98.85740 | 7674 ft | 278 kts | 119° |
| 2026-05-08 16:36 | 29.77720 | -98.83772 | 7411 ft | 267 kts | 119° |
| 2026-05-08 16:36 | 29.76900 | -98.81898 | 7136 ft | 256 kts | 124° |
| 2026-05-08 16:37 | 29.75967 | -98.80221 | 6962 ft | 241 kts | 128° |
| 2026-05-08 16:37 | 29.75030 | -98.78664 | 6725 ft | 233 kts | 128° |
| 2026-05-08 16:37 | 29.74134 | -98.77193 | 6587 ft | 215 kts | 129° |
| 2026-05-08 16:37 | 29.73303 | -98.75830 | 6328 ft | 208 kts | 129° |
| 2026-05-08 16:38 | 29.72476 | -98.74478 | 5994 ft | 206 kts | 129° |
| 2026-05-08 16:38 | 29.71653 | -98.73134 | 5636 ft | 205 kts | 129° |
| 2026-05-08 16:38 | 29.70833 | -98.71791 | 5275 ft | 204 kts | 128° |
| 2026-05-08 16:38 | 29.70017 | -98.70455 | 4904 ft | 204 kts | 128° |
| 2026-05-08 16:39 | 29.69206 | -98.69123 | 4598 ft | 199 kts | 128° |
| 2026-05-08 16:39 | 29.68436 | -98.67856 | 4449 ft | 186 kts | 128° |
| 2026-05-08 16:39 | 29.67723 | -98.66681 | 4337 ft | 172 kts | 128° |
| 2026-05-08 16:39 | 29.67149 | -98.65535 | 4175 ft | 160 kts | 124° |
| 2026-05-08 16:40 | 29.66511 | -98.64546 | 4001 ft | 151 kts | 133° |
| 2026-05-08 16:40 | 29.65830 | -98.63614 | 3986 ft | 153 kts | 132° |
| 2026-05-08 16:40 | 29.65155 | -98.62684 | 3972 ft | 152 kts | 133° |
| 2026-05-08 16:40 | 29.64461 | -98.61758 | 3784 ft | 152 kts | 134° |
| 2026-05-08 16:41 | 29.63756 | -98.60841 | 3574 ft | 153 kts | 134° |
| 2026-05-08 16:41 | 29.63049 | -98.59921 | 3372 ft | 153 kts | 133° |
| 2026-05-08 16:41 | 29.62344 | -98.59004 | 3170 ft | 152 kts | 133° |
| 2026-05-08 16:42 | 29.60999 | -98.57260 | 2800 ft | 139 kts | 133° |
| 2026-05-08 16:42 | 29.60358 | -98.56431 | 2612 ft | 139 kts | 133° |
| 2026-05-08 16:42 | 29.59714 | -98.55598 | 2425 ft | 140 kts | 131° |
| 2026-05-08 16:42 | 29.59078 | -98.54776 | 2244 ft | 139 kts | 130° |
| 2026-05-08 16:43 | 29.58438 | -98.53947 | 2068 ft | 139 kts | 130° |
| 2026-05-08 16:43 | 29.57795 | -98.53115 | 1890 ft | 139 kts | 129° |
| 2026-05-08 16:43 | 29.57153 | -98.52284 | 1714 ft | 139 kts | 129° |
| 2026-05-08 16:43 | 29.56512 | -98.51456 | 1529 ft | 138 kts | 130° |
| 2026-05-08 16:44 | 29.55874 | -98.50633 | 1326 ft | 137 kts | 131° |
| 2026-05-08 16:44 | 29.55239 | -98.49817 | 1144 ft | 136 kts | 131° |
| 2026-05-08 16:44 | 29.54603 | -98.49012 | 954 ft | 135 kts | 130° |
| 2026-05-08 16:44 | 29.53996 | -98.48186 | 810 ft | 130 kts | 130° |
| 2026-05-08 16:45 | 29.53555 | -98.47626 | 796 ft | 53 kts | 131° |
| 2026-05-08 16:45 | 29.53371 | -98.47389 | 798 ft | 38 kts | 132° |
| 2026-05-08 16:45 | 29.53182 | -98.47276 | 799 ft | 15 kts | 163° |
| 2026-05-08 16:45 | 29.53158 | -98.47267 | 799 ft | 0 kts | 162° |
| 2026-05-08 16:47 | 29.53156 | -98.47267 | 799 ft | 2 kts | 162° |
| 2026-05-08 16:47 | 29.53125 | -98.47254 | 799 ft | 6 kts | 154° |
| 2026-05-08 16:47 | 29.53085 | -98.47220 | 798 ft | 8 kts | 157° |
| 2026-05-08 16:48 | 29.53035 | -98.47236 | 784 ft | 8 kts | 217° |
| 2026-05-08 16:48 | 29.52994 | -98.47276 | 795 ft | 8 kts | 223° |
| 2026-05-08 16:48 | 29.52957 | -98.47308 | 795 ft | 0 kts | 192° |
| 2026-05-08 16:48 | 29.52945 | -98.47304 | 794 ft | 3 kts | 155° |
| 2026-05-08 16:49 | 29.52928 | -98.47287 | 794 ft | 4 kts | 131° |
| 2026-05-08 16:49 | 29.52918 | -98.47275 | 794 ft | 1 kts | 133° |
| 2026-05-08 16:49 | 29.52916 | -98.47273 | 794 ft | 0 kts | 133° |